Detall de PIREP

Printer-friendly versionPDF version

[2014/01/19 17:38:00]
Flight IATA:CT3126
Pilot Number:012
Company ICAO:CAT
Aircraft Type:F50/A
PAX:50
Aircraft Registration:PAOB
Departing Airport: LFMP
Destination Airport: LEZG
Alternate Airport:LEBL
Online: VATSIM
Route:BGR H110 REBUL G23 GRAUS
Flight Level:F230
No Slew and time accel
No pause
Crash detect
Detect pilot in Cockpit between each 30 and 45 minutes
17:38 Zero fuel Weight: 37088 Lbs, Fuel Weight: 3335 Lbs
17:38 VATSIM:LFMP 191700Z 31011KT 9999 BKN025 BKN056 10/04 Q0998 BECMG 32020G30KT
17:38 VATSIM:LEZG 191700Z 30016KT 9999 FEW045 08/03 Q1001
17:38 VOICE CATALONIAN
17:38 Parking Brakes off
17:42 Take-off
17:42 Take off Weight: 40363 Lbs
17:42 Wind: 304º @ 011 Knots Heading: 324º
17:42 POS N42º 44´ 39´´ E002º 52´ 11´´
17:42 Gear Up: 117 Knots
17:42 Flaps:1 at 117 Knots
17:43 Flaps:0 at 126 Knots
17:57 Wind:172º@022 Knots Heading: 207º Ground Speed:185 Knots Altitude 19648 ft
18:00 TOC
18:00 Fuel Weight: 2664 Lb
18:12 Wind:197º@018 Knots Heading: 256º Ground Speed: 247 Knots Altitude 22519 ft
18:27 Wind:233º@017 Knots Heading: 288º Ground Speed: 246 Knots Altitude 22565 ft
18:28 TOD
18:28 Fuel Weight: 1974 Lb
18:42 Wind:334º@013 Knots Heading: 268º Ground Speed: 245 Knots Altitude 8953 ft
18:49 Flaps:1 at 172 Knots
18:52 Flaps:2 at 171 Knots
18:54 Flaps:3 at 163 Knots
18:54 Gear Down: 153 Knots
18:54 Flaps:4 at 137 Knots
18:55 Flaps:5 at 120 Knots
18:55 Flaps:6 at 119 Knots
18:57 Wind:310º@017 Knots Heading: 301º Ground Speed: 094 Knots Altitude 1210 ft
18:58 TouchDown:Rate -181 ft/min Speed: 101 Knots
18:58 Flaps:0 at 35 Knots
18:58 VATSIM:LEZG 191830Z 30018KT CAVOK 07/02 Q1002
18:58 Land
18:58 Wind:310º@017 Knots
18:58 Heading: 302º
18:58 Flight Duration: 01:16
18:58 Landing Weight: 38492 Lbs
18:58 POS N41º 39´ 38´´ W001º 01´ 14´´
19:01 Parking brakes on
19:01 Block to Block Duration: 01:23
19:01 Final Fuel: 1364 Lbls
19:01 Spent Fuel: 1970 Lbls
19:01 Flight Length: 272 NM
19:01 TOD Land Length: 103 NM

Exportar CSV

Powered by Drupal - Modified by Danger4k